Terminal Aerodrome Forecast
Issued by NWS Twin Cities, MN

Home | Current Version | Previous Version | Graphics & Text | Print | Product List | Glossary On
Versions: 1 2 3 4 5 6 7 8 9 10 11 12 13 14 15 16 17 18 19 20 21 22 23 24 25 26 27
731
FTUS43 KMPX 051447 AAA
TAFMSP
TAF AMD
KMSP 051447Z 0515/0618 14006KT P6SM SCT090 BKN150
     FM051800 16009KT P6SM OVC040
     FM052000 18008KT 6SM -SN BR OVC025
      TEMPO 0520/0524 3SM -SN OVC020
     FM060000 24005KT P6SM BKN020
     FM060600 25005KT P6SM SCT050=

USA.gov is the U.S. government's official web portal to all federal, state and local government web resources and services.